Date,TemperatureHighF,TemperatureAvgF,TemperatureLowF,DewpointHighF,DewpointAvgF,DewpointLowF,HumidityHigh,HumidityAvg,HumidityLow,PressureMaxIn,PressureMinIn,WindSpeedMaxMPH,WindSpeedAvgMPH,GustSpeedMaxMPH,PrecipitationSumIn
2013-1-1,19.2,7.1,-9.9,15.2,1.7,-17.0,86,78,70,30.26,29.91,11,0,12,0.00
2013-1-2,27.5,16.1,3.5,23.4,10.7,-2.7,90,79,72,30.24,29.84,20,4,21,0.01
2013-1-3,21.8,11.7,0.5,15.0,5.6,-5.8,81,76,72,30.30,29.96,16,1,16,0.00
2013-1-4,27.9,18.6,7.4,17.0,11.5,2.4,84,74,62,30.10,29.96,11,0,11,0.00
2013-1-5,15.9,8.8,3.1,10.6,3.2,-1.9,82,78,67,30.14,29.93,19,2,21,0.00
2013-1-6,14.7,11.2,3.5,9.7,5.8,-1.7,82,79,74,30.19,29.78,21,3,22,0.00
2013-1-7,35.9,23.7,12.2,25.5,17.1,8.0,85,76,63,29.92,29.74,26,3,26,0.00
2013-1-8,34.1,24.4,9.7,27.6,19.3,5.3,87,81,69,29.91,29.65,19,2,21,0.01
2013-1-9,33.4,26.2,21.6,25.3,18.9,14.9,78,73,66,30.25,29.79,27,6,28,0.00
2013-1-10,40.7,34.6,27.5,31.8,28.0,21.5,92,77,64,30.04,29.56,31,12,35,0.06
2013-1-11,33.6,25.4,11.7,32.1,23.2,7.6,96,91,83,29.57,29.44,22,6,23,0.14
2013-1-12,11.7,3.5,-1.1,7.6,-2.6,-8.2,84,75,70,30.18,29.50,29,7,29,0.07
2013-1-13,7.1,1.5,-4.6,-1.5,-6.2,-12.2,73,70,64,30.26,30.13,12,1,13,0.00
2013-1-14,11.6,4.9,-2.2,3.6,-2.3,-9.4,79,72,59,30.35,30.20,11,1,11,0.00
2013-1-15,25.5,12.9,0.1,22.5,6.2,-5.7,89,74,63,30.20,29.58,21,2,21,0.06
2013-1-16,35.0,12.0,-4.0,32.5,3.9,-16.2,93,70,48,30.33,29.55,26,7,26,0.03
2013-1-17,14.2,6.7,-2.1,5.4,-2.3,-14.1,78,66,55,30.42,30.13,18,1,20,0.02
2013-1-18,29.2,21.2,10.9,22.9,16.2,5.4,85,81,75,30.14,29.68,20,2,21,0.00
2013-1-19,34.9,11.8,-3.3,30.1,5.7,-11.8,89,76,66,30.36,29.67,36,8,36,0.00
2013-1-20,3.6,-3.5,-11.7,-6.0,-13.3,-23.1,70,62,53,30.40,30.35,27,6,27,0.00
2013-1-21,-4.0,-10.8,-15.3,-15.9,-21.7,-26.3,64,57,52,30.39,30.30,16,4,17,0.00
2013-1-22,7.0,-3.2,-15.2,0.2,-12.4,-24.1,73,64,56,30.35,30.17,9,0,9,0.00
2013-1-23,7.2,-3.6,-14.7,0.7,-12.7,-25.8,78,64,55,30.69,30.14,19,7,27,0.00
2013-1-24,11.4,-2.4,-14.6,4.1,-12.4,-25.5,73,61,56,30.68,30.00,37,8,37,0.01
2013-1-25,14.0,2.5,-6.2,7.0,-6.2,-13.8,75,66,62,30.34,29.93,28,6,29,0.00
2013-1-26,16.7,6.8,-6.2,8.5,-1.2,-13.5,74,69,65,30.34,30.01,22,6,23,0.00
2013-1-27,31.8,19.9,5.6,26.0,14.1,0.2,89,78,72,30.02,29.79,9,0,9,0.00
2013-1-28,29.6,27.5,24.2,28.1,25.4,21.6,94,92,89,29.84,29.72,9,1,9,0.53
2013-1-29,25.4,21.2,14.1,22.2,17.5,8.5,91,86,78,29.96,29.67,20,4,22,0.03
2013-1-30,14.1,6.0,-6.7,8.5,-0.6,-14.9,78,74,68,29.95,29.86,22,8,23,0.00
2013-1-31,-6.2,-9.4,-15.8,-14.9,-18.3,-26.0,70,64,58,30.33,29.95,25,8,25,0.00
2013-2-1,0.7,-10.5,-21.0,-5.9,-18.8,-30.3,73,66,59,30.30,30.03,17,2,17,0.05
2013-2-2,7.8,-2.1,-13.2,2.4,-8.8,-21.0,78,72,67,30.20,29.97,21,2,22,0.05
2013-2-3,7.5,4.4,-0.1,-0.2,-2.9,-7.0,77,71,63,30.12,30.01,10,2,10,0.05
2013-2-4,16.6,6.3,-4.2,12.6,-1.3,-12.4,85,71,58,30.09,29.60,23,4,24,0.05
2013-2-5,26.7,12.5,6.6,23.6,6.3,0.6,89,76,66,30.07,29.60,20,3,23,0.05
2013-2-6,29.0,19.5,8.4,22.7,13.9,2.3,83,78,76,30.10,29.86,16,2,17,0.05
2013-2-7,21.0,15.5,11.4,16.7,10.8,6.9,84,81,76,30.33,30.10,13,3,13,0.05
2013-2-8,24.1,18.2,9.3,18.6,13.6,5.2,87,82,73,30.32,30.02,25,5,27,0.05
2013-2-9,31.7,27.6,21.7,28.0,24.3,17.3,93,87,82,30.02,29.86,19,3,19,0.05
2013-2-10,29.2,27.3,24.8,27.2,25.5,23.0,94,93,91,29.87,29.52,31,11,33,0.89
2013-2-11,24.7,19.8,15.8,23.0,16.4,11.0,93,86,80,30.01,29.68,31,8,31,0.13
2013-2-12,29.5,20.5,10.0,23.7,15.8,5.8,88,82,74,29.94,29.76,12,1,12,0.13
2013-2-13,29.4,22.7,13.8,25.9,19.4,10.2,90,87,80,29.78,29.60,13,1,14,0.13
2013-2-14,18.7,12.0,7.1,15.8,6.2,0.5,89,77,70,30.27,29.78,19,4,19,0.00
2013-2-15,13.8,6.7,-1.5,5.1,0.7,-7.2,79,76,68,30.39,30.23,8,0,8,0.00
2013-2-16,15.0,7.9,-4.9,10.0,2.4,-10.8,82,78,74,30.23,29.98,19,4,21,0.00
2013-2-17,29.5,22.4,12.9,26.1,18.1,7.3,88,83,78,29.98,29.50,27,9,29,0.00
2013-2-18,29.1,10.3,-1.8,26.4,5.3,-8.3,90,79,72,30.12,29.49,38,12,41,0.04
2013-2-19,-1.9,-7.4,-13.5,-8.1,-15.5,-22.0,74,67,63,30.49,30.12,22,8,31,0.00
2013-2-20,3.6,-7.7,-18.6,-6.3,-16.2,-27.3,72,66,60,30.50,30.35,6,0,6,0.00
2013-2-21,19.2,6.4,-7.6,8.9,-1.7,-14.5,76,69,61,30.41,30.16,12,0,12,0.00
2013-2-22,21.9,15.3,10.7,13.9,8.8,3.7,86,75,66,30.17,29.92,10,0,10,0.00
2013-2-23,20.5,14.4,6.4,15.9,10.5,2.1,87,84,79,29.97,29.87,8,0,8,0.00
2013-2-24,20.9,11.4,-0.9,13.3,5.9,-6.4,83,78,71,30.07,29.96,12,1,12,0.00
2013-2-25,25.7,20.3,10.5,19.5,16.3,6.6,90,85,73,30.10,30.01,16,2,16,0.00
2013-2-26,22.5,19.1,14.8,19.9,16.4,11.5,90,89,87,30.10,30.02,10,1,10,0.00
2013-2-27,27.8,18.1,7.7,23.8,14.4,3.6,89,85,82,30.19,30.09,22,5,24,0.00
2013-2-28,28.2,23.2,18.3,20.4,17.7,13.4,85,79,71,30.31,30.18,17,5,17,0.00
2013-3-1,29.6,17.1,7.5,18.8,11.1,2.9,84,77,62,30.42,30.30,8,0,8,0.00
2013-3-2,23.5,13.2,0.9,15.7,6.2,-4.1,84,74,57,30.36,30.07,19,3,19,0.00
2013-3-3,31.5,22.8,9.1,23.5,14.7,3.3,82,71,59,30.08,29.84,21,3,21,0.00
2013-3-4,27.7,24.8,23.5,22.9,20.8,14.8,90,85,58,30.00,29.83,27,6,28,0.31
2013-3-5,25.5,22.5,18.6,21.2,18.6,14.3,90,85,77,30.40,29.99,22,7,22,0.16
2013-3-6,24.2,18.4,10.2,17.3,13.1,5.3,85,79,70,30.45,30.31,11,0,11,0.01
2013-3-7,29.7,19.1,8.0,20.5,13.0,3.3,84,77,63,30.33,30.16,25,5,26,0.00
2013-3-8,31.2,25.1,20.8,24.4,20.2,16.2,88,81,75,30.25,30.04,16,1,16,0.00
2013-3-9,31.4,28.1,24.6,28.6,25.0,19.5,93,88,80,30.04,29.80,26,4,26,0.09
2013-3-10,24.5,19.8,6.7,19.4,13.7,-1.0,83,77,67,30.20,30.01,26,8,26,0.00
2013-3-11,27.6,14.5,2.4,14.6,6.9,-3.1,82,72,56,30.11,29.83,0,0,1,0.02
2013-3-12,26.6,19.2,10.8,18.1,13.6,3.8,86,79,69,30.33,29.88,24,5,26,0.05
2013-3-13,23.6,12.4,-1.1,19.5,5.7,-6.8,84,74,65,30.39,30.08,18,3,19,0.03
2013-3-14,39.2,28.1,16.7,29.5,22.3,12.7,87,79,67,30.11,30.02,18,2,18,0.00
2013-3-15,23.5,19.4,10.8,18.1,15.4,5.9,87,84,78,30.10,29.93,23,11,23,0.34
2013-3-16,12.6,4.3,-2.9,6.2,-3.2,-10.3,82,71,59,30.32,30.09,19,3,20,0.00
2013-3-17,22.9,7.1,-9.9,20.0,0.3,-17.2,89,73,66,30.31,29.62,26,7,31,0.00
2013-3-18,30.3,17.0,5.8,28.5,12.1,-1.8,93,81,70,29.99,29.44,37,12,40,0.37
2013-3-19,17.2,7.4,-1.8,2.8,-3.1,-10.6,71,62,49,30.33,29.98,21,6,21,0.14
2013-3-20,19.6,8.2,-1.1,5.2,-2.2,-9.1,69,62,49,30.35,30.19,19,5,19,0.14
2013-3-21,21.0,5.8,-7.6,9.9,-2.3,-14.6,76,69,60,30.20,30.10,1,0,1,0.14
2013-3-22,24.3,9.5,-4.8,14.3,2.4,-11.0,78,73,63,30.16,30.08,0,0,0,0.00
2013-3-23,30.9,19.3,6.7,20.0,11.7,1.1,81,72,61,30.21,30.14,11,0,11,0.00
2013-3-24,33.6,22.7,12.3,24.1,17.1,7.9,86,79,66,30.22,30.15,19,4,19,0.00
2013-3-25,31.9,23.8,15.3,22.2,17.2,9.6,83,76,66,30.36,30.21,20,5,20,0.00
2013-3-26,26.8,15.7,2.7,17.7,9.0,-2.9,82,74,66,30.37,30.29,1,0,1,0.00
2013-3-27,36.9,19.1,1.1,25.8,12.0,-4.6,82,74,62,30.34,30.28,16,1,16,0.00
2013-3-28,40.2,31.6,22.3,30.1,24.6,15.6,87,75,66,30.29,30.23,19,2,19,0.00
2013-3-29,42.4,28.0,15.6,35.2,24.4,12.2,92,87,74,30.25,29.99,8,0,8,0.00
2013-3-30,43.8,35.8,29.4,34.3,31.1,27.9,95,84,68,30.00,29.90,13,2,15,0.06
2013-3-31,34.7,27.1,17.2,31.0,19.5,10.6,86,73,58,30.23,29.86,28,9,31,0.00
2013-4-1,32.7,21.7,11.5,18.9,12.0,5.0,76,67,50,30.34,30.23,15,2,15,0.00
2013-4-2,33.1,22.4,10.5,20.5,14.5,5.8,86,72,50,30.39,30.27,8,0,8,0.00
2013-4-3,41.2,30.2,17.3,34.9,23.7,11.9,86,76,68,30.35,29.90,29,5,29,0.00
2013-4-4,36.4,31.2,21.1,28.7,23.5,15.3,81,73,62,30.28,30.01,23,6,23,0.00
2013-4-5,33.9,26.4,14.4,29.3,20.7,10.2,85,79,64,30.29,29.78,19,4,20,0.00
2013-4-6,40.7,34.4,29.2,36.0,30.8,25.4,94,87,79,29.86,29.66,18,4,18,0.23
2013-4-7,38.9,33.6,31.3,32.2,30.1,28.2,94,87,75,29.91,29.79,12,1,13,0.33
2013-4-8,33.0,29.0,19.4,31.7,25.5,12.1,96,87,73,30.28,29.79,29,12,32,0.07
2013-4-9,28.9,20.4,13.7,19.5,12.3,5.3,75,70,65,30.37,30.26,29,13,29,0.07
2013-4-10,34.7,27.9,20.1,27.5,21.4,14.6,82,76,66,30.36,30.03,20,8,20,0.07
2013-4-11,33.1,30.0,27.4,27.6,26.0,21.1,91,85,64,30.04,29.85,18,6,19,0.29
2013-4-12,35.2,29.5,26.3,29.3,26.0,23.1,91,87,77,29.91,29.84,17,7,19,0.06
2013-4-13,36.4,29.7,22.1,27.0,24.0,17.7,92,80,63,29.93,29.88,9,0,11,0.01
2013-4-14,35.0,30.5,22.0,30.6,25.3,17.6,96,81,63,29.92,29.47,29,7,30,0.64
2013-4-15,37.2,32.8,30.5,35.3,31.0,28.5,97,93,86,30.00,29.39,20,7,21,0.22
2013-4-16,38.4,31.5,25.1,30.7,26.8,21.5,91,83,72,30.37,30.00,16,3,16,0.00
2013-4-17,36.1,32.4,28.5,33.4,29.8,26.0,94,90,86,30.39,30.12,17,3,17,0.16
2013-4-18,38.1,32.4,28.7,33.3,28.1,23.2,93,84,71,30.12,29.84,30,10,30,0.08
2013-4-19,37.7,30.7,25.3,25.5,22.0,18.2,79,70,57,30.08,29.80,27,9,27,0.00
2013-4-20,37.8,28.8,17.7,24.2,18.5,11.4,81,66,36,30.23,30.08,16,2,17,0.00
2013-4-21,40.6,34.8,30.0,37.1,30.4,24.3,93,84,76,30.19,29.97,23,6,23,0.04
2013-4-22,35.4,31.2,27.8,27.0,24.8,21.2,84,77,66,30.35,30.19,21,6,23,0.00
2013-4-23,41.6,31.7,20.6,26.1,22.3,15.7,83,69,50,30.33,30.02,13,2,13,0.00
2013-4-24,46.1,33.1,23.9,34.2,27.7,19.9,91,81,57,30.06,29.89,31,3,31,0.02
2013-4-25,46.3,36.3,26.4,37.5,28.4,22.2,85,73,52,30.14,29.93,23,3,24,0.00
2013-4-26,68.0,49.9,31.6,47.2,38.1,27.9,90,67,33,30.10,29.88,13,1,13,0.00
2013-4-27,72.8,57.0,39.8,55.3,44.1,33.8,83,64,44,30.07,29.74,26,4,26,0.00
2013-4-28,62.9,53.3,43.3,49.8,42.2,29.3,84,67,38,29.88,29.62,26,4,26,0.00
2013-4-29,66.3,50.0,28.4,47.0,37.3,24.5,90,63,40,29.90,29.40,11,2,19,0.00
2013-4-30,59.4,51.1,36.1,50.6,39.2,24.7,94,65,45,30.10,29.31,30,9,32,0.07
2013-5-1,42.4,35.5,27.2,28.6,24.2,20.0,81,64,55,30.60,30.08,25,6,25,0.00
2013-5-2,41.4,32.5,25.2,28.1,24.9,21.6,89,74,56,30.70,30.54,24,4,25,0.00
2013-5-3,53.0,38.5,22.9,30.3,25.9,19.5,89,64,40,30.54,30.25,21,4,22,0.00
2013-5-4,50.2,42.7,37.5,40.5,33.3,26.1,92,70,55,30.29,30.23,22,6,22,0.07
2013-5-5,50.2,43.8,37.9,43.6,40.0,36.4,96,87,77,30.26,30.14,12,2,12,0.09
2013-5-6,69.1,55.1,45.6,51.6,46.6,42.0,90,75,52,30.15,30.02,3,0,3,0.09
2013-5-7,78.3,61.8,41.8,53.2,46.5,40.4,97,63,30,30.04,29.88,20,2,20,0.09
2013-5-8,76.4,61.1,49.7,53.3,48.4,39.6,86,65,41,30.08,29.92,23,3,25,0.09
2013-5-9,67.3,54.1,39.8,39.7,34.5,28.4,75,51,28,30.18,30.08,27,8,27,0.09
2013-5-10,70.5,52.3,38.5,42.0,35.1,23.8,90,55,31,30.18,29.88,36,5,36,0.09
2013-5-11,53.6,43.9,35.9,30.3,23.5,13.9,75,47,24,30.30,30.12,29,10,34,0.00
2013-5-12,64.3,47.4,25.9,25.4,20.0,15.0,70,37,16,30.27,30.02,11,0,11,0.09
2013-5-13,90.8,65.9,48.5,49.7,34.0,23.7,46,32,16,30.03,29.57,29,5,29,0.09
2013-5-14,86.1,68.9,56.6,59.1,46.1,36.7,83,46,21,29.80,29.47,43,7,43,0.09
2013-5-15,84.1,67.7,48.7,43.9,38.8,32.4,79,41,16,29.85,29.76,23,2,23,0.00
2013-5-16,79.3,61.5,45.8,54.0,44.2,37.3,78,57,25,29.94,29.85,24,4,24,0.02
2013-5-17,74.4,64.8,51.2,57.2,49.4,38.0,80,59,39,29.94,29.86,20,3,20,0.00
2013-5-18,84.8,68.5,57.3,68.5,61.4,54.8,99,80,49,29.88,29.73,15,3,16,0.38
2013-5-19,77.5,66.5,57.6,69.2,62.6,57.0,100,88,65,29.74,29.56,21,4,27,0.93
2013-5-20,64.0,58.6,55.8,61.9,57.5,54.0,99,96,91,29.59,29.45,19,2,19,0.68
2013-5-21,55.9,50.7,48.0,54.1,48.9,45.8,98,94,87,29.86,29.56,25,9,25,0.40
2013-5-22,71.3,58.1,46.7,54.3,46.6,36.0,93,69,28,30.09,29.85,26,7,26,0.00
2013-5-23,69.5,58.5,44.7,46.9,38.8,27.7,82,52,22,30.31,30.09,14,1,14,0.00
2013-5-24,67.0,55.2,44.8,50.2,42.1,34.0,89,63,35,30.29,30.13,30,4,30,0.05
2013-5-25,69.5,60.2,53.1,55.8,52.4,50.0,92,76,60,30.17,30.07,30,6,30,0.00
2013-5-26,60.9,57.0,53.2,50.7,48.1,45.2,83,73,59,30.17,30.00,26,4,26,0.00
2013-5-27,70.5,60.8,54.5,58.9,53.5,48.0,87,77,64,30.03,29.79,16,2,18,0.03
2013-5-28,73.0,62.7,57.0,62.4,57.3,54.2,96,83,64,29.80,29.63,18,5,20,0.00
2013-5-29,70.0,62.5,55.5,65.0,59.8,54.4,99,91,79,29.71,29.58,16,3,17,1.77
2013-5-30,78.4,67.3,60.3,67.5,63.7,59.7,100,89,62,29.61,29.40,21,2,23,1.24
2013-5-31,64.3,61.4,59.1,61.7,58.0,54.3,98,89,79,29.57,29.34,18,2,18,0.07
2013-6-1,60.4,52.5,47.5,57.9,48.5,43.9,96,87,75,30.07,29.57,30,9,30,0.00
2013-6-2,65.5,54.6,42.1,48.2,43.2,38.5,94,69,40,30.12,30.01,12,0,12,0.00
2013-6-3,65.5,55.3,40.2,50.1,43.7,37.7,94,67,43,30.05,29.94,14,0,14,0.02
2013-6-4,59.9,56.6,53.6,56.3,52.6,47.8,98,87,72,29.99,29.91,20,2,21,0.28
2013-6-5,63.4,56.4,54.1,56.4,53.5,51.7,98,90,75,30.07,29.93,14,1,16,0.02
2013-6-6,68.7,60.0,52.0,53.0,50.9,48.8,94,74,52,30.08,30.02,12,0,13,0.00
2013-6-7,73.2,62.1,50.5,57.2,51.9,48.5,94,72,46,30.05,29.85,14,0,14,0.02
2013-6-8,74.0,64.6,53.6,57.5,53.6,49.8,89,69,49,29.89,29.81,21,1,21,0.01
2013-6-9,65.0,59.9,52.4,62.2,56.6,51.0,99,89,73,29.87,29.83,9,1,10,0.46
2013-6-10,74.3,62.3,50.7,64.7,58.0,50.2,100,87,66,29.85,29.76,13,1,13,0.00
2013-6-11,82.2,69.6,56.2,62.7,54.9,45.3,95,65,29,29.94,29.80,11,1,13,0.01
2013-6-12,76.1,66.2,58.9,60.5,56.1,50.2,87,71,50,30.06,29.85,17,1,21,0.00
2013-6-13,80.0,66.9,55.0,56.2,53.1,49.9,83,63,38,30.11,30.00,5,0,5,0.00
2013-6-14,82.3,72.7,63.5,65.2,60.3,55.4,79,66,52,30.02,29.73,32,4,38,0.00
2013-6-15,84.4,72.4,58.7,64.3,53.0,40.8,88,55,22,29.93,29.79,24,2,24,0.00
2013-6-16,86.3,73.7,60.8,55.8,50.1,42.3,70,46,23,29.89,29.80,30,4,31,0.01
2013-6-17,78.5,69.5,61.9,60.9,56.9,51.8,79,65,50,30.04,29.88,20,2,20,0.00
2013-6-18,81.6,69.2,57.6,58.1,54.4,51.4,90,62,37,30.11,29.95,12,0,12,0.00
2013-6-19,88.7,76.4,63.2,63.8,58.7,53.7,81,57,33,29.97,29.84,13,2,16,0.00
2013-6-20,84.3,73.1,62.5,72.9,65.8,60.2,98,79,63,29.94,29.80,41,3,41,1.25
2013-6-21,81.6,70.3,61.5,70.2,65.6,60.3,98,86,66,30.02,29.76,23,0,23,0.64
2013-6-22,82.6,72.7,64.8,71.8,67.2,64.5,100,84,61,29.92,29.77,14,1,15,0.64
2013-6-23,79.3,70.3,61.5,68.2,63.8,57.1,100,82,51,29.83,29.62,24,2,26,0.85
2013-6-24,83.7,73.0,58.6,69.4,63.5,55.5,91,74,47,29.84,29.74,15,1,15,0.64
2013-6-25,87.0,75.6,67.0,76.4,70.6,64.9,99,86,68,29.76,29.60,26,3,26,1.06
2013-6-26,87.2,74.2,62.9,72.9,66.8,62.7,100,80,49,29.79,29.58,38,1,49,1.99
2013-6-27,85.5,76.2,68.4,65.8,61.8,56.5,81,63,38,29.87,29.78,25,3,26,0.64
2013-6-28,80.4,72.7,65.1,65.0,60.8,57.8,82,67,53,29.93,29.86,26,6,27,0.64
2013-6-29,81.4,71.1,61.6,66.3,62.1,59.6,96,75,50,30.03,29.92,19,3,19,0.00
2013-6-30,84.8,72.6,58.0,64.4,58.7,53.1,99,66,37,30.16,30.03,13,0,15,0.00
2013-7-1,87.1,73.6,58.2,64.8,57.9,50.2,97,62,29,30.23,30.15,7,0,7,0.00
2013-7-2,88.5,76.3,63.0,64.6,59.4,53.5,89,60,32,30.16,30.03,7,0,9,0.00
2013-7-3,87.7,75.7,63.8,66.6,61.0,56.5,87,63,38,30.03,29.87,15,1,15,0.00
2013-7-4,90.9,78.0,65.4,67.4,61.5,54.6,73,58,39,29.87,29.69,21,2,21,0.00
2013-7-5,89.8,79.9,67.7,71.7,67.1,63.9,92,67,43,29.76,29.70,12,0,13,0.00
2013-7-6,82.6,75.0,68.9,73.3,69.5,66.2,99,84,69,29.81,29.74,12,1,13,0.29
2013-7-7,83.6,74.8,64.7,73.8,66.2,59.1,100,77,47,29.95,29.79,15,1,15,0.00
2013-7-8,87.5,75.1,59.2,68.7,63.7,56.9,96,70,47,30.00,29.88,11,0,12,0.00
2013-7-9,76.9,71.5,62.9,71.9,65.4,56.6,100,82,68,30.04,29.75,19,2,20,0.16
2013-7-10,81.5,70.0,58.4,60.7,56.3,53.1,88,65,39,30.09,30.00,15,1,17,0.00
2013-7-11,85.9,76.0,62.0,70.1,64.5,56.0,84,68,54,30.03,29.81,25,5,26,0.00
2013-7-12,91.1,81.4,72.6,75.2,71.2,65.6,92,72,59,29.85,29.72,24,4,24,0.00
2013-7-13,87.8,76.9,67.9,77.2,72.7,67.9,100,88,69,29.98,29.85,13,1,13,0.00
2013-7-14,75.4,71.9,69.0,71.4,69.2,65.7,98,91,84,30.18,29.97,16,1,17,0.01
2013-7-15,74.2,70.1,65.6,73.5,69.5,65.0,100,98,90,30.18,30.05,11,1,12,0.34
2013-7-16,92.2,80.3,69.2,75.2,71.2,67.8,96,76,53,30.12,30.04,16,1,17,0.00
2013-7-17,90.9,78.3,65.1,77.3,71.2,64.2,98,80,55,30.19,30.02,13,0,13,0.00
2013-7-18,93.8,83.0,72.2,78.8,73.4,67.8,97,74,56,30.02,29.67,20,1,21,0.00
2013-7-19,85.5,73.1,64.9,68.0,60.7,57.1,91,67,39,29.90,29.73,22,3,22,0.44
2013-7-20,74.7,64.8,56.8,60.5,54.1,49.6,87,70,46,30.02,29.89,13,1,15,0.00
2013-7-21,81.3,69.0,52.7,66.9,59.1,48.5,89,72,58,29.97,29.64,15,0,15,0.00
2013-7-22,73.5,68.9,58.9,67.2,59.0,51.5,83,71,58,29.94,29.64,17,2,17,0.00
2013-7-23,76.3,64.3,51.7,57.1,52.7,48.0,90,68,45,30.06,29.94,13,0,13,0.00
2013-7-24,83.0,69.4,53.8,60.9,55.4,50.8,92,64,36,30.06,29.88,20,0,22,0.00
2013-7-25,82.3,69.5,59.3,62.0,55.2,44.8,87,63,33,29.97,29.89,23,2,24,0.00
2013-7-26,69.2,61.4,54.3,53.6,49.2,44.3,89,66,44,30.18,29.97,25,7,25,0.02
2013-7-27,71.0,60.9,48.8,48.8,45.0,40.9,82,58,37,30.19,30.02,22,3,23,0.00
2013-7-28,75.5,62.4,45.9,51.2,46.5,42.3,90,60,34,30.07,30.01,4,0,4,0.00
2013-7-29,76.7,65.4,53.6,56.8,52.1,47.1,84,64,39,30.06,30.01,16,1,17,0.11
2013-7-30,79.3,68.3,59.4,63.0,59.1,55.8,90,74,51,30.07,30.02,11,1,11,0.01
2013-7-31,76.1,67.5,58.5,58.8,51.9,44.8,91,61,35,30.09,30.02,22,2,23,0.00
2013-8-1,81.8,69.5,58.6,55.2,50.7,46.5,77,53,31,30.03,29.89,19,0,20,0.00
2013-8-2,77.5,65.9,53.6,56.6,50.2,44.8,86,60,33,30.09,29.91,15,1,15,0.00
2013-8-3,77.0,65.5,55.7,53.7,48.8,42.1,82,58,29,30.22,30.09,14,1,15,0.00
2013-8-4,75.0,64.0,51.3,55.5,51.0,43.1,82,64,46,30.25,29.91,13,0,14,0.00
2013-8-5,72.0,65.1,60.1,59.3,56.4,53.1,89,74,55,29.92,29.82,14,1,15,0.00
2013-8-6,76.5,63.8,56.3,65.4,58.0,51.3,93,82,62,29.90,29.72,17,2,17,0.23
2013-8-7,75.2,62.2,50.8,54.0,50.2,45.8,85,67,42,30.03,29.88,11,0,11,0.01
2013-8-8,76.3,65.5,56.3,56.0,52.7,46.1,88,66,36,30.05,29.99,13,1,13,0.01
2013-8-9,69.1,61.6,52.4,53.2,49.8,45.0,82,66,51,30.15,30.03,18,2,18,0.00
2013-8-10,75.0,63.3,50.6,55.2,52.3,46.9,91,69,48,30.20,30.06,6,0,6,0.00
2013-8-11,77.3,65.7,58.0,60.1,55.1,51.9,88,70,44,30.11,30.04,13,1,15,0.00
2013-8-12,79.9,65.6,51.9,57.3,51.3,44.5,91,63,37,30.15,30.06,16,2,17,0.00
2013-8-13,77.1,62.2,46.8,52.9,45.4,39.6,81,58,28,30.24,30.14,9,0,9,0.00
2013-8-14,78.5,63.6,48.2,53.4,47.1,38.8,88,59,26,30.18,30.06,8,0,8,0.00
2013-8-15,81.2,68.7,58.0,62.6,56.0,48.7,81,65,43,30.10,30.05,11,0,11,0.00
2013-8-16,81.3,70.5,61.0,61.5,56.4,51.6,85,63,39,30.13,30.07,17,2,18,0.00
2013-8-17,83.3,70.9,58.5,66.5,61.0,55.0,89,72,54,30.09,29.94,19,2,19,0.00
2013-8-18,85.2,74.0,63.6,70.1,64.6,58.3,84,73,59,29.99,29.85,20,2,22,0.00
2013-8-19,90.3,78.2,67.0,72.6,68.6,63.7,90,74,52,29.90,29.80,10,0,10,0.00
2013-8-20,95.5,81.4,68.7,75.2,70.3,65.8,91,72,41,29.81,29.71,20,2,20,0.00
2013-8-21,84.3,74.2,61.8,73.3,56.6,45.9,84,57,27,30.08,29.73,17,3,17,0.00
2013-8-22,80.9,69.6,58.9,53.3,47.1,38.5,72,48,24,30.20,30.07,11,1,11,0.00
2013-8-23,85.6,70.9,52.7,68.9,56.9,46.3,83,63,39,30.13,29.89,19,3,22,0.00
2013-8-24,93.8,82.5,72.9,73.1,70.5,68.1,86,69,45,29.91,29.72,22,4,23,0.00
2013-8-25,93.8,83.3,70.5,75.3,71.7,62.3,84,69,50,29.92,29.78,35,0,35,0.00
2013-8-26,92.6,80.0,71.5,77.8,72.3,67.0,93,78,55,29.93,29.82,19,1,19,0.00
2013-8-27,92.3,78.6,64.3,72.7,66.1,61.1,91,68,37,29.93,29.81,8,0,8,0.00
2013-8-28,90.5,80.0,73.5,74.0,69.3,66.3,84,71,52,29.99,29.92,12,0,13,0.00
2013-8-29,89.6,79.1,71.4,75.5,70.7,66.1,93,77,57,29.95,29.81,11,2,19,0.21
2013-8-30,87.6,74.6,64.2,67.6,64.9,61.4,95,74,44,30.01,29.85,9,0,9,0.04
2013-8-31,88.0,76.5,65.4,70.8,63.5,52.8,87,66,42,29.87,29.69,23,2,26,0.04
2013-9-1,69.9,61.7,51.6,57.5,52.6,45.4,85,73,52,30.06,29.83,21,3,21,0.04
2013-9-2,64.2,50.3,44.0,51.9,45.7,41.0,92,85,63,30.15,30.06,0,0,0,0.00
2013-9-3,85.3,73.3,53.2,61.2,57.3,48.2,83,59,41,30.13,29.94,10,0,12,0.00
2013-9-4,79.8,66.2,53.5,60.9,49.3,38.7,81,58,23,30.18,30.00,14,2,15,0.00
2013-9-5,86.8,71.3,55.6,65.7,57.4,46.9,79,63,45,30.18,29.98,17,2,17,0.00
2013-9-6,90.4,77.8,67.3,70.4,66.8,63.0,87,70,47,29.99,29.84,12,0,12,0.00
2013-9-7,87.9,74.4,65.6,69.4,62.4,56.7,91,68,42,30.05,29.88,17,2,19,0.00
2013-9-8,70.2,65.3,59.1,63.0,59.7,55.9,91,83,68,30.07,29.83,18,1,18,0.87
2013-9-9,74.0,67.8,64.2,69.8,65.0,61.4,95,91,86,29.84,29.61,20,1,20,0.60
2013-9-10,77.3,66.9,60.3,63.3,60.5,58.0,95,81,55,29.93,29.80,14,1,15,0.02
2013-9-11,81.0,70.1,58.9,61.4,52.6,41.5,88,57,27,30.16,29.92,22,3,24,0.00
2013-9-12,73.0,60.6,51.4,54.8,49.4,46.8,87,68,41,30.30,30.16,14,0,15,0.00
2013-9-13,76.3,61.9,48.6,54.6,48.9,45.0,90,65,38,30.24,29.96,14,0,14,0.00
2013-9-14,60.4,57.5,54.4,56.6,52.4,46.8,94,84,64,29.96,29.82,15,2,17,1.86
2013-9-15,65.7,55.6,44.5,55.6,48.2,40.6,94,78,45,30.32,29.95,17,2,17,0.00
2013-9-16,67.9,55.2,42.4,51.5,44.3,37.0,90,69,40,30.34,30.10,17,2,17,0.00
2013-9-17,65.1,58.4,52.7,57.3,52.2,45.3,87,80,71,30.11,29.81,20,4,20,0.00
2013-9-18,79.4,67.3,59.3,70.4,62.8,55.5,92,86,74,29.81,29.53,16,2,19,0.00
2013-9-19,74.4,65.5,56.8,65.3,57.5,50.5,95,77,47,29.86,29.59,22,2,22,0.12
2013-9-20,60.5,53.8,46.1,51.5,46.8,40.9,90,78,53,29.98,29.86,20,1,20,0.16
2013-9-21,63.6,52.6,41.6,45.4,43.0,38.1,90,71,48,30.02,29.86,0,0,0,0.00
2013-9-22,77.7,66.7,49.1,61.4,55.2,43.2,84,67,56,29.87,29.60,30,7,33,0.00
2013-9-23,78.0,68.8,62.3,58.2,55.5,53.5,75,63,48,29.79,29.64,29,7,31,0.00
2013-9-24,74.5,63.5,56.4,60.7,55.5,52.7,92,76,48,29.93,29.80,14,0,14,0.00
2013-9-25,76.0,63.8,53.7,62.2,56.0,52.3,96,78,53,29.90,29.73,21,3,21,0.00
2013-9-26,81.4,69.8,62.2,65.3,60.2,54.8,82,72,56,29.77,29.66,27,4,27,0.00
2013-9-27,66.1,56.0,52.0,59.4,52.3,50.2,98,88,78,29.80,29.70,14,1,17,0.07
2013-9-28,62.1,52.9,49.7,52.1,48.4,42.4,100,86,58,29.82,29.61,19,1,21,1.36
2013-9-29,76.0,59.0,42.9,52.7,45.2,38.4,86,63,34,29.83,29.52,16,1,17,1.02
2013-9-30,75.8,64.2,50.3,54.8,50.1,43.8,87,62,34,29.57,29.47,13,0,13,1.02
2013-10-1,70.8,61.0,51.1,53.7,38.8,25.1,69,47,19,29.94,29.49,27,3,28,1.02
2013-10-2,64.3,52.6,43.4,49.0,42.2,35.3,85,68,45,30.00,29.92,18,1,18,1.02
2013-10-3,56.7,49.7,43.0,49.5,44.4,39.1,90,82,73,30.08,29.94,18,4,19,1.02
2013-10-4,50.8,46.8,43.9,44.6,41.9,38.6,90,83,74,30.16,29.92,30,12,30,0.09
2013-10-5,56.1,49.1,45.8,51.0,45.7,43.3,91,88,79,29.93,29.79,24,7,24,1.12
2013-10-6,62.9,50.3,41.8,43.3,41.1,36.3,92,73,44,29.90,29.80,23,5,24,0.36
2013-10-7,66.8,52.2,37.6,45.8,39.6,33.6,89,65,35,29.97,29.80,12,0,13,0.36
2013-10-8,73.4,60.1,51.0,52.9,46.9,38.9,87,63,42,29.80,29.60,15,2,17,0.36
2013-10-9,70.4,55.9,41.7,47.1,43.5,38.4,90,67,34,29.98,29.76,12,1,12,0.36
2013-10-10,72.3,61.6,50.8,56.7,51.0,43.8,86,69,53,29.94,29.69,18,2,18,0.36
2013-10-11,68.9,62.1,52.5,59.1,52.8,45.8,89,72,54,29.71,29.35,29,4,29,0.34
2013-10-12,56.1,49.3,42.7,46.3,41.0,32.8,89,74,49,30.18,29.44,28,4,32,0.15
2013-10-13,58.6,46.8,32.5,42.9,35.2,28.2,88,66,41,30.38,30.17,9,0,10,0.02
2013-10-14,50.6,46.1,43.0,42.5,40.3,37.7,90,81,63,30.36,30.01,18,3,18,1.30
2013-10-15,44.4,42.9,37.0,41.4,39.0,30.7,89,86,76,30.04,29.92,27,8,27,0.73
2013-10-16,60.3,43.3,28.9,40.8,33.6,25.1,90,71,39,30.03,29.81,13,0,13,0.00
2013-10-17,49.1,44.1,35.8,41.4,34.8,26.8,82,70,57,29.96,29.80,21,3,21,0.01
2013-10-18,50.5,39.7,32.7,34.7,30.7,26.1,80,71,47,29.97,29.76,20,1,22,0.00
2013-10-19,43.6,37.8,32.6,34.3,31.4,27.7,87,78,64,29.78,29.69,16,1,16,0.02
2013-10-20,39.1,35.9,33.4,35.5,29.9,21.2,90,79,60,29.97,29.61,21,3,22,0.47
2013-10-21,39.5,34.3,30.4,26.0,22.7,19.0,68,62,53,29.99,29.95,18,2,18,0.47
2013-10-22,40.3,35.3,29.3,29.1,24.7,21.2,77,66,49,30.08,29.98,13,1,14,0.47
2013-10-23,39.5,34.9,31.6,29.5,23.5,20.3,82,63,48,30.17,30.03,20,2,20,0.47
2013-10-24,42.1,36.6,29.9,30.5,28.4,25.1,84,72,59,30.29,30.16,15,1,15,0.47
2013-10-25,60.0,41.7,27.6,40.7,29.7,21.8,80,64,41,30.27,29.76,26,3,28,0.00
2013-10-26,42.7,37.4,31.4,28.5,25.4,22.6,72,62,49,30.18,29.92,19,2,20,0.47
2013-10-27,47.6,38.2,30.5,32.3,26.9,23.3,80,64,46,30.30,29.76,27,6,28,0.47
2013-10-28,36.6,28.5,21.0,23.7,17.4,13.7,77,64,40,30.54,30.30,16,4,17,0.47
2013-10-29,35.8,30.2,22.3,29.1,22.4,14.9,78,72,67,30.46,30.11,0,0,0,0.47
2013-10-30,38.0,36.4,34.1,35.0,32.7,28.4,89,86,78,30.12,29.71,0,0,0,0.47
2013-10-31,44.0,39.7,36.9,38.0,34.9,32.0,89,83,73,29.71,29.44,11,0,13,0.47
2013-11-1,48.4,39.1,31.7,36.5,31.6,26.8,83,75,60,29.93,29.49,13,1,13,0.47
2013-11-2,51.6,40.0,29.8,35.7,31.2,25.3,86,72,46,30.05,29.92,10,1,10,0.47
2013-11-3,53.7,46.7,38.1,34.3,32.2,29.0,78,59,41,29.98,29.64,38,9,38,0.00
2013-11-4,47.4,39.9,30.5,34.0,27.2,18.6,79,61,47,30.10,29.65,23,3,23,0.00
2013-11-5,36.7,31.5,27.3,21.7,18.2,15.0,67,58,51,30.22,30.10,9,1,10,0.00
2013-11-6,38.9,28.2,19.8,27.4,19.3,12.2,79,69,60,30.16,30.07,8,0,9,0.00
2013-11-7,40.6,28.6,21.0,24.9,19.2,13.5,78,68,53,30.24,30.11,10,0,10,0.00
2013-11-8,44.0,35.4,24.5,32.9,26.6,18.3,87,72,40,30.11,29.59,28,4,31,0.25
2013-11-9,39.7,37.3,33.7,34.0,27.9,23.5,85,69,58,30.29,29.62,32,9,32,0.00
2013-11-10,38.1,28.5,17.1,26.9,19.9,6.7,81,70,57,30.37,30.12,33,4,33,0.00
2013-11-11,18.0,14.4,8.5,6.5,3.4,0.2,71,61,52,30.77,30.36,24,6,24,0.00
2013-11-12,35.9,22.0,9.5,13.8,6.3,-0.1,70,52,30,30.76,30.21,13,1,14,0.00
2013-11-13,57.9,37.3,22.3,36.4,25.0,13.4,79,62,40,30.21,29.81,18,2,18,0.00
2013-11-14,45.5,37.7,27.1,34.9,30.3,22.1,85,75,64,29.84,29.76,11,1,14,0.00
2013-11-15,49.1,37.2,23.0,38.3,30.6,18.4,87,77,60,29.79,29.41,17,3,17,0.02
2013-11-16,45.2,39.0,33.6,39.0,34.5,29.3,89,84,77,29.41,29.27,15,2,15,0.03
2013-11-17,37.9,32.1,26.0,35.0,26.7,17.5,89,80,70,29.95,29.33,27,7,27,0.03
2013-11-18,31.1,26.0,23.2,18.1,16.8,15.6,76,68,57,30.19,29.94,21,2,22,0.00
2013-11-19,46.4,36.5,23.1,33.9,26.1,16.7,77,66,57,30.14,29.58,30,8,30,0.00
2013-11-20,43.8,30.5,18.8,32.7,22.7,11.6,80,73,64,30.19,29.61,26,7,27,0.00
2013-11-21,18.8,13.4,6.6,11.6,4.4,-3.7,74,67,61,30.63,30.19,27,7,27,0.01
2013-11-22,20.2,10.2,1.6,13.5,1.1,-7.5,76,66,61,30.82,30.46,20,4,22,0.02
2013-11-23,9.2,3.2,-4.2,-1.5,-6.4,-13.4,67,64,58,30.93,30.58,19,2,19,0.00
2013-11-24,41.8,25.3,7.1,25.5,12.7,-2.2,66,59,48,30.58,29.80,24,5,25,0.00
2013-11-25,35.4,30.0,21.7,25.2,21.1,8.3,78,69,55,30.20,29.81,28,8,29,0.00
2013-11-26,21.7,15.3,6.9,10.1,5.0,-0.2,72,64,56,30.46,30.21,23,6,24,0.00
2013-11-27,24.0,15.4,4.9,8.6,4.2,-2.1,75,62,45,30.43,29.97,27,3,27,0.00
2013-11-28,22.1,16.4,7.7,12.3,5.8,-0.7,73,63,53,30.47,30.11,23,4,23,0.00
2013-11-29,34.4,23.2,9.7,17.2,11.5,2.5,73,61,48,30.46,29.99,25,5,25,0.00
2013-11-30,26.1,23.7,20.9,19.2,17.0,14.2,81,75,67,30.24,30.00,13,1,13,0.00
2013-12-1,27.8,22.1,18.6,22.5,16.8,14.0,83,80,74,30.24,29.82,12,0,12,0.02
2013-12-2,30.4,28.4,26.0,26.6,24.2,21.4,86,84,79,29.82,29.59,16,3,16,0.26
2013-12-3,26.0,23.0,20.8,22.3,18.1,15.6,86,81,78,29.88,29.68,22,9,24,0.04
2013-12-4,27.7,17.9,6.5,24.3,13.1,0.0,87,81,74,29.85,29.68,28,8,32,7.22
2013-12-5,6.6,0.1,-4.7,0.1,-9.2,-14.7,74,64,59,30.33,29.81,29,10,29,0.33
2013-12-6,-4.1,-7.7,-11.2,-13.8,-19.0,-22.6,62,57,51,30.63,30.33,16,6,16,0.33
2013-12-7,-8.2,-12.1,-16.9,-21.6,-23.9,-27.4,60,55,49,30.65,30.49,11,2,14,0.00
2013-12-8,5.2,-3.3,-16.8,-3.3,-12.1,-27.5,71,65,58,30.49,30.03,12,1,12,0.33
2013-12-9,2.6,-4.3,-10.4,-5.3,-14.9,-21.4,69,59,51,30.09,29.76,19,6,19,0.33
2013-12-10,6.4,-2.1,-9.0,-2.5,-11.3,-19.8,69,64,58,30.39,29.80,18,3,19,0.33
2013-12-11,-0.1,-7.5,-13.7,-8.6,-18.5,-25.3,67,57,48,30.51,30.20,14,3,14,0.33
2013-12-12,10.8,5.2,-2.5,1.8,-3.5,-11.0,70,66,61,30.26,30.18,16,2,17,0.00
2013-12-13,5.1,0.3,-1.3,-4.2,-9.3,-11.3,67,63,59,30.37,30.21,20,8,22,0.03
2013-12-14,2.0,-1.4,-9.3,-6.2,-10.6,-19.7,69,64,58,30.36,30.18,13,2,14,0.04
2013-12-15,3.9,-4.9,-9.7,-4.3,-15.0,-19.8,68,61,56,30.22,29.99,17,3,17,0.02
2013-12-16,32.7,19.6,3.8,25.6,11.5,-4.4,77,70,63,30.00,29.84,25,6,26,0.06
2013-12-17,30.6,14.7,2.6,24.3,6.0,-5.5,77,68,59,30.13,29.88,22,4,25,0.00
2013-12-18,31.0,19.2,3.0,20.6,10.3,-6.5,74,68,61,30.04,29.60,23,5,23,0.00
2013-12-19,2.9,-2.3,-5.6,-6.4,-11.6,-15.2,67,64,61,30.26,30.04,22,9,22,0.04
2013-12-20,5.9,-1.3,-8.8,-3.6,-9.8,-18.0,69,66,64,30.19,29.86,7,0,8,0.00
2013-12-21,1.7,-4.1,-9.3,-7.3,-13.1,-18.2,69,64,59,30.18,29.86,16,3,17,0.00
2013-12-22,-2.5,-6.5,-11.6,-13.7,-17.1,-24.0,64,59,53,30.45,30.14,16,6,17,0.01
2013-12-23,-7.7,-13.9,-18.5,-22.1,-26.2,-30.1,56,53,47,30.61,30.41,15,3,15,0.00
2013-12-24,16.2,1.6,-18.1,10.0,-7.4,-29.0,76,65,55,30.41,30.01,25,6,25,0.10
2013-12-25,23.3,16.5,12.7,18.3,8.5,4.4,82,70,60,30.18,29.97,19,2,21,0.02
2013-12-26,25.4,19.6,12.8,20.6,13.4,5.7,82,77,72,30.12,30.03,0,0,0,0.03
2013-12-27,40.2,32.0,23.6,31.3,26.1,18.6,85,79,69,30.06,29.83,19,2,19,0.00
2013-12-28,33.8,15.7,-13.3,29.8,9.9,-23.8,87,77,58,30.44,29.70,36,8,37,0.01
2013-12-29,-5.0,-11.0,-14.8,-18.1,-22.6,-25.9,58,55,48,30.49,30.20,23,3,26,0.00
2013-12-30,1.3,-6.7,-16.0,-7.6,-16.2,-26.1,67,62,57,30.29,30.13,17,2,17,0.04
2013-12-31,-13.2,-16.4,-19.4,-22.6,-27.5,-31.5,62,56,51,30.47,30.23,14,4,14,0.01
2014-1-1,-5.3,-11.3,-17.2,-15.9,-22.0,-28.4,61,58,54,30.53,30.43,8,1,8,0.00
2014-1-2,-6.2,-14.3,-20.9,-15.6,-24.8,-31.8,63,58,54,30.54,30.13,18,2,19,0.00